Time;durP1;ratioP1;P1;durP2;ratioP2;P2;SDS_P1;SDS_P2;PMS_P1;PMS_P2;Temp;Humidity;BMP_temperature;BMP_pressure;BME280_temperature;BME280_humidity;BME280_pressure;Samples;Min_cycle;Max_cycle;Signal;HPM_P1;HPM_P2
2021/08/23 00:02:20;;;;;;;15.47;13.87;;;;;;;;;;5030221;28;20929;-46
2021/08/23 00:04:46;;;;;;;20.73;14.33;;;;;;;;;;5030173;28;20457;-46
2021/08/23 00:07:12;;;;;;;14.93;13.53;;;;;;;;;;5030351;28;20401;-49
2021/08/23 00:09:38;;;;;;;13.83;12.43;;;;;;;;;;5029870;28;20897;-46
2021/08/23 00:12:05;;;;;;;16.17;13.43;;;;;;;;;;5030273;28;20401;-46
2021/08/23 00:14:31;;;;;;;15.20;13.60;;;;;;;;;;5030054;28;20415;-47
2021/08/23 00:16:57;;;;;;;18.93;13.70;;;;;;;;;;5030221;28;20387;-46
2021/08/23 00:19:23;;;;;;;17.80;13.50;;;;;;;;;;5029894;28;20495;-47
2021/08/23 00:22:00;;;;;;;16.60;13.57;;;;;;;;;;5030614;28;20467;-46
2021/08/23 00:24:26;;;;;;;17.03;12.97;;;;;;;;;;5033660;28;20439;-47
2021/08/23 00:26:53;;;;;;;15.93;14.23;;;;;;;;;;5033796;28;20470;-47
2021/08/23 00:29:19;;;;;;;16.77;13.00;;;;;;;;;;5033423;28;20383;-46
2021/08/23 00:31:45;;;;;;;19.80;13.50;;;;;;;;;;5033640;28;20904;-47
2021/08/23 00:34:12;;;;;;;14.00;12.10;;;;;;;;;;5033409;28;20409;-46
2021/08/23 00:36:41;;;;;;;16.00;12.83;;;;;;;;;;5033559;28;20409;-46
2021/08/23 00:39:08;;;;;;;17.00;13.70;;;;;;;;;;5033368;28;20375;-47
2021/08/23 00:41:35;;;;;;;16.23;12.37;;;;;;;;;;5033371;28;20405;-46
2021/08/23 00:44:01;;;;;;;14.70;12.77;;;;;;;;;;5033479;28;20378;-47
2021/08/23 00:46:27;;;;;;;15.47;11.83;;;;;;;;;;5033494;28;20435;-46
2021/08/23 00:48:53;;;;;;;16.77;13.10;;;;;;;;;;5033460;28;20459;-46
2021/08/23 00:51:20;;;;;;;19.27;14.20;;;;;;;;;;5033465;28;20404;-46
2021/08/23 00:53:46;;;;;;;15.57;13.13;;;;;;;;;;5033507;28;20438;-47
2021/08/23 00:56:12;;;;;;;15.47;13.87;;;;;;;;;;5033060;28;20453;-46
2021/08/23 00:58:39;;;;;;;15.83;14.23;;;;;;;;;;5033142;28;20408;-46
2021/08/23 01:01:09;;;;;;;20.13;14.80;;;;;;;;;;5032659;28;20386;-47
2021/08/23 01:03:43;;;;;;;19.07;14.00;;;;;;;;;;5032553;28;20405;-46
2021/08/23 01:06:10;;;;;;;13.87;12.47;;;;;;;;;;5032173;28;20504;-47
2021/08/23 01:08:40;;;;;;;18.13;13.90;;;;;;;;;;5031765;28;20380;-46
2021/08/23 01:11:10;;;;;;;16.40;14.53;;;;;;;;;;5032673;28;20405;-46
2021/08/23 01:13:38;;;;;;;15.27;13.70;;;;;;;;;;5032921;28;20387;-47
2021/08/23 01:16:04;;;;;;;15.00;13.50;;;;;;;;;;5032747;28;20425;-46
2021/08/23 01:18:30;;;;;;;18.90;14.23;;;;;;;;;;5032746;28;20759;-47
2021/08/23 01:21:00;;;;;;;9.83;8.13;;;;;;;;;;5032851;28;20882;-46
2021/08/23 01:23:26;;;;;;;28.57;14.27;;;;;;;;;;5032956;28;20497;-46
2021/08/23 01:25:52;;;;;;;18.30;15.07;;;;;;;;;;5032656;28;21108;-46
2021/08/23 01:28:36;;;;;;;19.30;13.60;;;;;;;;;;5032398;28;20405;-47
2021/08/23 01:31:05;;;;;;;18.30;14.53;;;;;;;;;;5032456;28;20403;-47
2021/08/23 01:33:31;;;;;;;22.30;15.07;;;;;;;;;;5032390;28;20382;-46
2021/08/23 01:35:59;;;;;;;19.70;13.97;;;;;;;;;;5032392;28;20399;-47
2021/08/23 01:38:24;;;;;;;21.03;16.70;;;;;;;;;;5032074;28;20382;-46
2021/08/23 01:41:05;;;;;;;17.90;15.40;;;;;;;;;;5032345;28;20844;-47
2021/08/23 01:43:31;;;;;;;22.97;17.97;;;;;;;;;;5032182;28;20437;-47
2021/08/23 01:45:57;;;;;;;24.33;16.97;;;;;;;;;;5032094;28;20519;-47
2021/08/23 01:48:23;;;;;;;25.63;16.93;;;;;;;;;;5031913;28;20456;-47
2021/08/23 01:50:49;;;;;;;22.30;17.77;;;;;;;;;;5032106;28;20372;-46
2021/08/23 01:53:16;;;;;;;26.47;19.27;;;;;;;;;;5032098;28;20387;-47
2021/08/23 01:55:43;;;;;;;23.03;17.57;;;;;;;;;;5031857;28;20506;-46
2021/08/23 01:58:09;;;;;;;24.40;17.40;;;;;;;;;;5032006;28;20406;-46
2021/08/23 02:00:35;;;;;;;21.10;17.27;;;;;;;;;;5031663;28;20412;-46
2021/08/23 02:03:01;;;;;;;20.13;16.77;;;;;;;;;;5031952;28;20461;-47
2021/08/23 02:05:28;;;;;;;21.57;18.30;;;;;;;;;;5031619;28;20432;-47
2021/08/23 02:07:54;;;;;;;27.10;17.60;;;;;;;;;;5031885;28;20397;-47
2021/08/23 02:10:20;;;;;;;22.47;17.37;;;;;;;;;;5031368;28;20488;-47
2021/08/23 02:12:46;;;;;;;25.13;17.87;;;;;;;;;;5031764;28;20921;-47
2021/08/23 02:15:12;;;;;;;24.87;17.77;;;;;;;;;;5031497;28;20434;-46
2021/08/23 02:17:38;;;;;;;29.03;17.97;;;;;;;;;;5031679;28;20434;-47
2021/08/23 02:20:05;;;;;;;25.10;18.73;;;;;;;;;;5031340;28;20881;-47
2021/08/23 02:22:31;;;;;;;25.73;19.70;;;;;;;;;;5031571;28;20405;-46
2021/08/23 02:24:57;;;;;;;26.93;19.43;;;;;;;;;;5031258;28;20509;-46
2021/08/23 02:27:23;;;;;;;31.27;19.83;;;;;;;;;;5031547;28;20494;-46
2021/08/23 02:29:49;;;;;;;28.50;19.00;;;;;;;;;;5031229;28;20375;-47
2021/08/23 02:32:15;;;;;;;27.07;18.23;;;;;;;;;;5031344;28;20375;-47
2021/08/23 02:34:41;;;;;;;32.70;20.17;;;;;;;;;;5031327;28;20420;-47
2021/08/23 02:37:07;;;;;;;24.30;18.80;;;;;;;;;;5031267;28;20464;-47
2021/08/23 02:39:33;;;;;;;29.00;21.73;;;;;;;;;;5030969;28;20403;-47
2021/08/23 02:41:59;;;;;;;29.40;20.17;;;;;;;;;;5031175;28;20379;-46
2021/08/23 02:44:25;;;;;;;24.87;18.00;;;;;;;;;;5030791;28;20426;-46
2021/08/23 02:46:51;;;;;;;23.13;18.60;;;;;;;;;;5030992;28;20409;-47
2021/08/23 02:49:17;;;;;;;26.47;18.83;;;;;;;;;;5031210;28;20733;-46
2021/08/23 02:51:44;;;;;;;32.50;19.53;;;;;;;;;;5031112;28;20391;-46
2021/08/23 02:54:10;;;;;;;34.50;18.87;;;;;;;;;;5030947;28;20769;-47
2021/08/23 02:56:36;;;;;;;27.73;21.73;;;;;;;;;;5031167;28;20385;-46
2021/08/23 02:59:02;;;;;;;27.70;20.63;;;;;;;;;;5030773;28;20401;-46
2021/08/23 03:01:28;;;;;;;27.40;20.27;;;;;;;;;;5030996;28;20480;-46
2021/08/23 03:03:54;;;;;;;34.10;23.03;;;;;;;;;;5030913;28;20391;-47
2021/08/23 03:06:20;;;;;;;33.20;20.77;;;;;;;;;;5030835;28;20490;-47
2021/08/23 03:08:46;;;;;;;28.53;19.83;;;;;;;;;;5030567;28;20544;-46
2021/08/23 03:11:13;;;;;;;27.70;18.93;;;;;;;;;;5030806;28;20412;-47
2021/08/23 03:13:39;;;;;;;30.40;19.67;;;;;;;;;;5030714;28;20462;-47
2021/08/23 03:16:06;;;;;;;31.13;21.23;;;;;;;;;;5030736;28;20403;-46
2021/08/23 03:18:32;;;;;;;28.70;21.13;;;;;;;;;;5030494;28;20750;-46
2021/08/23 03:20:58;;;;;;;26.53;19.23;;;;;;;;;;5030955;28;20417;-46
2021/08/23 03:23:24;;;;;;;27.50;19.73;;;;;;;;;;5030527;28;20409;-47
2021/08/23 03:25:51;;;;;;;27.93;20.20;;;;;;;;;;5030599;28;20837;-46
2021/08/23 03:28:17;;;;;;;26.00;20.00;;;;;;;;;;5030380;28;20444;-47
2021/08/23 03:30:43;;;;;;;28.53;20.03;;;;;;;;;;5030682;28;20385;-47
2021/08/23 03:33:09;;;;;;;22.30;17.80;;;;;;;;;;5030568;28;20927;-46
2021/08/23 03:35:35;;;;;;;31.67;20.13;;;;;;;;;;5029940;28;20420;-47
2021/08/23 03:38:02;;;;;;;23.53;18.50;;;;;;;;;;5030636;28;20436;-47
2021/08/23 03:40:28;;;;;;;24.43;18.70;;;;;;;;;;5030193;28;20943;-47
2021/08/23 03:42:55;;;;;;;28.20;18.80;;;;;;;;;;5030590;28;20405;-46
2021/08/23 03:45:21;;;;;;;25.70;19.40;;;;;;;;;;5030298;28;20457;-47
2021/08/23 03:47:47;;;;;;;27.47;20.77;;;;;;;;;;5030557;28;20404;-46
2021/08/23 03:50:13;;;;;;;24.47;18.00;;;;;;;;;;5030039;28;20400;-47
2021/08/23 03:52:39;;;;;;;24.20;18.30;;;;;;;;;;5030693;28;20434;-47
2021/08/23 03:55:06;;;;;;;22.40;17.77;;;;;;;;;;5030113;28;20932;-46
2021/08/23 03:57:33;;;;;;;22.40;18.80;;;;;;;;;;5031979;28;20388;-46
2021/08/23 03:59:59;;;;;;;22.00;17.90;;;;;;;;;;5033901;28;20465;-47
2021/08/23 04:02:25;;;;;;;31.17;21.33;;;;;;;;;;5034302;28;20386;-47
2021/08/23 04:04:51;;;;;;;29.80;19.90;;;;;;;;;;5033964;28;20437;-46
2021/08/23 04:07:17;;;;;;;22.73;18.03;;;;;;;;;;5034362;28;20384;-47
2021/08/23 04:09:43;;;;;;;25.70;20.03;;;;;;;;;;5033902;28;20772;-47
2021/08/23 04:12:09;;;;;;;26.67;19.97;;;;;;;;;;5033927;28;20404;-47
2021/08/23 04:14:35;;;;;;;27.77;21.17;;;;;;;;;;5033916;28;20404;-47
2021/08/23 04:17:01;;;;;;;26.90;20.30;;;;;;;;;;5033859;28;20404;-47
2021/08/23 04:19:29;;;;;;;32.33;21.43;;;;;;;;;;5033631;28;20754;-46
2021/08/23 04:21:55;;;;;;;27.13;19.50;;;;;;;;;;5033776;28;20406;-47
2021/08/23 04:24:21;;;;;;;26.80;19.73;;;;;;;;;;5033700;28;20455;-47
2021/08/23 04:26:47;;;;;;;28.40;20.50;;;;;;;;;;5033595;28;20387;-47
2021/08/23 04:29:13;;;;;;;24.90;19.57;;;;;;;;;;5033599;28;20894;-46
2021/08/23 04:31:39;;;;;;;28.13;21.83;;;;;;;;;;5033647;28;20392;-46
2021/08/23 04:34:05;;;;;;;26.60;20.33;;;;;;;;;;5033515;28;20383;-47
2021/08/23 04:36:31;;;;;;;29.00;22.80;;;;;;;;;;5033551;28;20402;-46
2021/08/23 04:38:57;;;;;;;36.17;20.83;;;;;;;;;;5033493;28;20525;-46
2021/08/23 04:41:23;;;;;;;30.60;21.30;;;;;;;;;;5033778;28;20461;-46
2021/08/23 04:43:49;;;;;;;37.57;24.97;;;;;;;;;;5033626;28;20965;-46
2021/08/23 04:46:15;;;;;;;40.30;25.60;;;;;;;;;;5033698;28;20449;-47
2021/08/23 04:48:41;;;;;;;38.17;26.97;;;;;;;;;;5033328;28;20502;-46
2021/08/23 04:51:07;;;;;;;47.40;27.90;;;;;;;;;;5032203;28;20939;-46
2021/08/23 04:53:33;;;;;;;38.53;23.90;;;;;;;;;;5033484;28;20462;-47
2021/08/23 04:55:59;;;;;;;44.07;28.87;;;;;;;;;;5033248;28;20476;-46
2021/08/23 04:58:25;;;;;;;47.83;31.03;;;;;;;;;;5033077;28;21131;-47
2021/08/23 05:00:51;;;;;;;51.17;30.30;;;;;;;;;;5033271;28;21039;-47
2021/08/23 05:03:17;;;;;;;42.50;28.40;;;;;;;;;;5033010;28;20412;-47
2021/08/23 05:05:43;;;;;;;45.43;29.70;;;;;;;;;;5033070;28;20490;-47
2021/08/23 05:08:09;;;;;;;51.10;31.00;;;;;;;;;;5032733;28;20409;-47
2021/08/23 05:10:35;;;;;;;49.30;28.50;;;;;;;;;;5032880;28;20483;-47
2021/08/23 05:13:01;;;;;;;51.27;29.90;;;;;;;;;;5033120;28;20462;-47
2021/08/23 05:15:27;;;;;;;41.43;27.90;;;;;;;;;;5032787;28;20406;-47
2021/08/23 05:17:54;;;;;;;38.37;26.83;;;;;;;;;;5032907;28;20386;-47
2021/08/23 05:20:20;;;;;;;46.70;30.37;;;;;;;;;;5032442;28;20379;-47
2021/08/23 05:22:46;;;;;;;42.90;27.67;;;;;;;;;;5032868;28;20387;-47
2021/08/23 05:25:14;;;;;;;43.70;28.30;;;;;;;;;;5032348;28;20906;-47
2021/08/23 05:27:40;;;;;;;48.00;29.27;;;;;;;;;;5032593;28;20782;-46
2021/08/23 05:30:07;;;;;;;45.50;28.30;;;;;;;;;;5032200;28;20402;-47
2021/08/23 05:32:33;;;;;;;44.80;29.47;;;;;;;;;;5032545;28;20380;-46
2021/08/23 05:34:59;;;;;;;47.90;28.90;;;;;;;;;;5032293;28;20524;-46
2021/08/23 05:37:25;;;;;;;42.60;28.47;;;;;;;;;;5032524;28;20404;-46
2021/08/23 05:39:51;;;;;;;44.53;27.40;;;;;;;;;;5032076;28;20437;-46
2021/08/23 05:42:17;;;;;;;40.70;28.03;;;;;;;;;;5032408;28;20806;-46
2021/08/23 05:44:43;;;;;;;46.07;27.10;;;;;;;;;;5032192;28;20424;-47
2021/08/23 05:47:10;;;;;;;39.67;26.03;;;;;;;;;;5032053;28;20387;-46
2021/08/23 05:49:35;;;;;;;43.77;27.20;;;;;;;;;;5032025;28;20383;-47
2021/08/23 05:52:02;;;;;;;44.00;27.93;;;;;;;;;;5032079;28;20400;-46
2021/08/23 05:54:28;;;;;;;39.60;25.30;;;;;;;;;;5031952;28;20936;-46
2021/08/23 05:56:56;;;;;;;40.80;27.07;;;;;;;;;;5032023;28;20851;-46
2021/08/23 05:59:22;;;;;;;44.90;25.57;;;;;;;;;;5032036;28;20516;-47
2021/08/23 06:01:52;;;;;;;43.53;26.70;;;;;;;;;;5032312;28;20419;-45
2021/08/23 06:04:20;;;;;;;41.93;26.50;;;;;;;;;;5031757;28;20828;-45
2021/08/23 06:06:46;;;;;;;41.20;27.13;;;;;;;;;;5031778;28;20879;-44
2021/08/23 06:09:13;;;;;;;45.80;29.73;;;;;;;;;;5031655;28;20419;-45
2021/08/23 06:11:39;;;;;;;37.30;25.90;;;;;;;;;;5031560;28;20369;-45
2021/08/23 06:14:05;;;;;;;38.53;26.77;;;;;;;;;;5031697;28;21093;-45
2021/08/23 06:16:30;;;;;;;42.57;25.87;;;;;;;;;;5031651;28;20937;-45
2021/08/23 06:18:56;;;;;;;45.37;28.47;;;;;;;;;;5031446;28;20783;-46
2021/08/23 06:21:22;;;;;;;34.90;24.97;;;;;;;;;;5030971;28;20402;-48
2021/08/23 06:23:48;;;;;;;42.07;26.67;;;;;;;;;;5031406;28;20418;-48
2021/08/23 06:26:14;;;;;;;42.70;25.87;;;;;;;;;;5031380;28;20440;-45
2021/08/23 06:28:42;;;;;;;41.53;27.70;;;;;;;;;;5031208;28;20373;-45
2021/08/23 06:31:09;;;;;;;37.70;25.10;;;;;;;;;;5031401;28;20399;-46
2021/08/23 06:33:35;;;;;;;46.53;29.03;;;;;;;;;;5031453;28;20402;-48
2021/08/23 06:36:01;;;;;;;43.63;27.23;;;;;;;;;;5031311;28;20932;-48
2021/08/23 06:38:27;;;;;;;41.33;25.13;;;;;;;;;;5031014;28;20912;-44
2021/08/23 06:40:53;;;;;;;37.87;25.53;;;;;;;;;;5031295;28;20455;-45
2021/08/23 06:43:19;;;;;;;38.80;25.23;;;;;;;;;;5031152;28;20410;-44
2021/08/23 06:45:45;;;;;;;37.23;23.13;;;;;;;;;;5031171;28;20562;-44
2021/08/23 06:48:11;;;;;;;35.53;24.03;;;;;;;;;;5031009;28;20747;-44
2021/08/23 06:50:37;;;;;;;36.30;23.47;;;;;;;;;;5031038;28;20397;-44
2021/08/23 06:53:04;;;;;;;32.73;22.10;;;;;;;;;;5031172;28;20772;-45
2021/08/23 06:55:31;;;;;;;34.13;23.60;;;;;;;;;;5030848;28;20445;-45
2021/08/23 06:57:58;;;;;;;34.10;22.17;;;;;;;;;;5031088;28;20416;-45
2021/08/23 07:00:26;;;;;;;40.20;23.37;;;;;;;;;;5030643;28;20879;-47
2021/08/23 07:02:52;;;;;;;31.57;21.17;;;;;;;;;;5031144;28;20476;-44
2021/08/23 07:05:18;;;;;;;37.60;23.87;;;;;;;;;;5029777;28;20540;-44
2021/08/23 07:07:44;;;;;;;29.27;20.77;;;;;;;;;;5031068;28;20375;-45
2021/08/23 07:10:12;;;;;;;31.87;20.50;;;;;;;;;;5030592;28;20402;-44
2021/08/23 07:12:40;;;;;;;27.80;19.83;;;;;;;;;;5030905;28;20372;-48
2021/08/23 07:15:06;;;;;;;31.03;18.70;;;;;;;;;;5029865;28;20468;-44
2021/08/23 07:17:32;;;;;;;24.70;16.50;;;;;;;;;;5030626;28;20412;-44
2021/08/23 07:19:58;;;;;;;25.40;16.77;;;;;;;;;;5030440;28;20390;-44
2021/08/23 07:22:24;;;;;;;23.83;16.20;;;;;;;;;;5030166;28;20442;-44
2021/08/23 07:24:53;;;;;;;18.73;14.83;;;;;;;;;;5030527;28;20453;-44
2021/08/23 07:27:23;;;;;;;22.13;14.33;;;;;;;;;;5028839;28;20525;-48
2021/08/23 07:29:49;;;;;;;28.83;18.60;;;;;;;;;;5030508;28;20373;-49
2021/08/23 07:32:16;;;;;;;21.77;15.93;;;;;;;;;;5033474;28;20428;-46
2021/08/23 07:34:42;;;;;;;23.40;15.63;;;;;;;;;;5034696;28;20440;-44
2021/08/23 07:37:10;;;;;;;17.13;14.17;;;;;;;;;;5034536;28;20381;-45
2021/08/23 07:39:36;;;;;;;20.50;15.03;;;;;;;;;;5034318;28;20420;-44
2021/08/23 07:42:02;;;;;;;18.67;14.53;;;;;;;;;;5034334;28;20491;-45
2021/08/23 07:44:28;;;;;;;19.70;14.53;;;;;;;;;;5034329;28;20440;-45
2021/08/23 07:46:55;;;;;;;17.97;14.20;;;;;;;;;;5034226;28;20516;-47
2021/08/23 07:49:21;;;;;;;17.73;13.87;;;;;;;;;;5033933;28;20805;-48
2021/08/23 07:51:47;;;;;;;19.63;15.33;;;;;;;;;;5034339;28;20424;-44
2021/08/23 07:54:18;;;;;;;22.33;17.10;;;;;;;;;;5033976;28;20943;-45
2021/08/23 07:56:44;;;;;;;21.37;16.37;;;;;;;;;;5034490;28;20477;-46
2021/08/23 07:59:10;;;;;;;21.40;16.40;;;;;;;;;;5033948;28;20402;-45
2021/08/23 08:01:36;;;;;;;23.00;18.03;;;;;;;;;;5034169;28;20435;-48
2021/08/23 08:04:02;;;;;;;22.00;16.83;;;;;;;;;;5034015;28;20434;-45
2021/08/23 08:06:30;;;;;;;24.20;17.57;;;;;;;;;;5033964;28;20524;-45
2021/08/23 08:08:57;;;;;;;25.60;20.03;;;;;;;;;;5033931;28;20413;-46
2021/08/23 08:11:23;;;;;;;24.73;20.10;;;;;;;;;;5034278;28;20432;-46
2021/08/23 08:13:49;;;;;;;22.83;19.80;;;;;;;;;;5033486;28;20908;-48
2021/08/23 08:16:15;;;;;;;26.43;20.27;;;;;;;;;;5033074;28;20401;-47
2021/08/23 08:18:41;;;;;;;20.47;17.60;;;;;;;;;;5033471;28;20960;-48
2021/08/23 08:21:07;;;;;;;19.20;16.80;;;;;;;;;;5033232;28;20397;-47
2021/08/23 08:23:33;;;;;;;21.20;17.50;;;;;;;;;;5033878;28;20383;-47
2021/08/23 08:25:59;;;;;;;24.00;17.77;;;;;;;;;;5033585;28;20462;-48
2021/08/23 08:28:25;;;;;;;26.60;19.30;;;;;;;;;;5033540;28;20910;-44
2021/08/23 08:30:53;;;;;;;20.57;18.37;;;;;;;;;;5033540;28;20805;-44
2021/08/23 08:33:19;;;;;;;22.83;18.80;;;;;;;;;;5033664;28;20379;-45
2021/08/23 08:35:45;;;;;;;17.90;16.10;;;;;;;;;;5033217;28;20419;-45
2021/08/23 08:38:11;;;;;;;26.03;19.90;;;;;;;;;;5033449;28;21017;-45
2021/08/23 08:40:37;;;;;;;19.10;17.10;;;;;;;;;;5033171;28;20960;-45
2021/08/23 08:43:04;;;;;;;21.37;18.03;;;;;;;;;;5033012;28;20455;-45
2021/08/23 08:45:30;;;;;;;25.03;17.30;;;;;;;;;;5033173;28;20451;-46
2021/08/23 08:47:59;;;;;;;25.83;17.90;;;;;;;;;;5033327;28;20894;-48
2021/08/23 08:50:25;;;;;;;22.53;18.70;;;;;;;;;;5032769;28;20451;-45
2021/08/23 08:52:51;;;;;;;21.43;18.13;;;;;;;;;;5033519;28;20509;-46
2021/08/23 08:55:17;;;;;;;25.60;20.07;;;;;;;;;;5032951;28;20518;-46
2021/08/23 08:57:47;;;;;;;24.57;19.20;;;;;;;;;;5033403;28;20849;-46
2021/08/23 09:00:14;;;;;;;26.70;20.77;;;;;;;;;;5032276;28;20875;-45
2021/08/23 09:02:40;;;;;;;27.57;19.40;;;;;;;;;;5033693;28;20436;-45
2021/08/23 09:05:15;;;;;;;27.90;21.53;;;;;;;;;;5032747;28;20948;-45
2021/08/23 09:07:47;;;;;;;23.77;19.57;;;;;;;;;;5033168;28;20438;-45
2021/08/23 09:10:20;;;;;;;31.80;21.13;;;;;;;;;;5032684;28;20373;-45
2021/08/23 09:12:46;;;;;;;28.03;21.53;;;;;;;;;;5032950;28;20406;-45
2021/08/23 09:15:12;;;;;;;29.33;20.83;;;;;;;;;;5032612;28;20795;-45
2021/08/23 09:17:38;;;;;;;24.13;20.37;;;;;;;;;;5032893;28;20895;-45
2021/08/23 09:20:05;;;;;;;27.13;20.70;;;;;;;;;;5032593;28;20485;-45
2021/08/23 09:22:32;;;;;;;26.40;20.60;;;;;;;;;;5032673;28;20414;-46
2021/08/23 09:25:07;;;;;;;24.77;19.00;;;;;;;;;;5032510;28;20500;-48
2021/08/23 09:27:33;;;;;;;27.80;20.10;;;;;;;;;;5032644;28;20406;-44
2021/08/23 09:30:04;;;;;;;31.00;21.30;;;;;;;;;;5032248;28;20406;-45
2021/08/23 09:32:32;;;;;;;27.43;21.07;;;;;;;;;;5032411;28;20411;-46
2021/08/23 09:34:59;;;;;;;27.70;20.97;;;;;;;;;;5032477;28;20426;-47
2021/08/23 09:37:26;;;;;;;28.43;19.40;;;;;;;;;;5032368;28;20779;-45
2021/08/23 09:39:53;;;;;;;24.20;18.40;;;;;;;;;;5032206;28;20506;-46
2021/08/23 09:42:21;;;;;;;33.37;21.30;;;;;;;;;;5032125;28;20457;-45
2021/08/23 09:44:47;;;;;;;27.83;21.40;;;;;;;;;;5032327;28;20508;-44
2021/08/23 09:47:13;;;;;;;23.97;19.57;;;;;;;;;;5032279;28;20458;-45
2021/08/23 09:49:42;;;;;;;24.30;20.03;;;;;;;;;;5032100;28;20408;-45
2021/08/23 09:52:08;;;;;;;27.30;19.70;;;;;;;;;;5032126;28;20490;-45
2021/08/23 09:54:35;;;;;;;28.47;22.20;;;;;;;;;;5030859;28;20817;-45
2021/08/23 09:57:01;;;;;;;30.03;24.40;;;;;;;;;;5031860;28;20400;-44
2021/08/23 09:59:29;;;;;;;29.67;23.10;;;;;;;;;;5031753;28;20428;-45
2021/08/23 10:02:03;;;;;;;29.83;23.37;;;;;;;;;;5031974;28;20405;-46
2021/08/23 10:04:30;;;;;;;31.57;23.87;;;;;;;;;;5031765;28;20423;-45
2021/08/23 10:06:56;;;;;;;32.17;24.70;;;;;;;;;;5031737;28;20908;-48
2021/08/23 10:09:24;;;;;;;31.63;22.03;;;;;;;;;;5031445;28;20834;-49
2021/08/23 10:11:53;;;;;;;36.37;26.77;;;;;;;;;;5031787;28;20452;-45
2021/08/23 10:14:20;;;;;;;35.53;24.63;;;;;;;;;;5031678;28;20932;-45
2021/08/23 10:16:46;;;;;;;34.70;25.37;;;;;;;;;;5031660;28;20412;-46
2021/08/23 10:19:12;;;;;;;35.30;23.40;;;;;;;;;;5031409;28;20817;-46
2021/08/23 10:21:42;;;;;;;29.13;23.87;;;;;;;;;;5031424;28;20406;-44
2021/08/23 10:24:08;;;;;;;30.33;23.13;;;;;;;;;;5031402;28;20402;-46
2021/08/23 10:26:39;;;;;;;22.33;19.93;;;;;;;;;;5031424;28;20453;-46
2021/08/23 10:29:12;;;;;;;23.43;20.03;;;;;;;;;;5031255;28;20905;-46
2021/08/23 10:31:41;;;;;;;25.00;20.20;;;;;;;;;;5031458;28;20916;-45
2021/08/23 10:34:21;;;;;;;20.67;18.40;;;;;;;;;;5031269;28;20413;-46
2021/08/23 10:36:48;;;;;;;29.30;20.23;;;;;;;;;;5031283;28;20430;-48
2021/08/23 10:39:24;;;;;;;20.97;18.73;;;;;;;;;;5031250;28;20410;-46
2021/08/23 10:41:51;;;;;;;22.77;19.90;;;;;;;;;;5031297;28;20411;-45
2021/08/23 10:44:27;;;;;;;20.13;17.47;;;;;;;;;;5030980;28;20417;-47
2021/08/23 10:47:03;;;;;;;20.43;18.20;;;;;;;;;;5031033;28;20460;-46
2021/08/23 10:49:37;;;;;;;20.77;18.40;;;;;;;;;;5031087;28;20447;-46
2021/08/23 10:52:03;;;;;;;19.20;17.37;;;;;;;;;;5031106;28;20402;-48
2021/08/23 10:54:36;;;;;;;20.70;18.63;;;;;;;;;;5030756;28;20427;-48
2021/08/23 10:57:02;;;;;;;20.57;17.80;;;;;;;;;;5031056;28;20929;-46
2021/08/23 10:59:38;;;;;;;19.63;17.63;;;;;;;;;;5030455;28;20408;-46
2021/08/23 11:02:04;;;;;;;22.70;18.90;;;;;;;;;;5030967;28;20405;-49
2021/08/23 11:04:41;;;;;;;21.87;19.53;;;;;;;;;;5030629;28;20430;-45
2021/08/23 11:07:09;;;;;;;21.30;18.20;;;;;;;;;;5030633;28;20513;-45
2021/08/23 11:09:35;;;;;;;20.90;18.70;;;;;;;;;;5030435;28;20433;-45
2021/08/23 11:12:11;;;;;;;24.20;19.13;;;;;;;;;;5030725;28;20407;-45
2021/08/23 11:14:44;;;;;;;23.33;19.30;;;;;;;;;;5030635;28;21006;-45
2021/08/23 11:17:45;;;;;;;20.00;17.87;;;;;;;;;;5030880;28;20843;-45
2021/08/23 11:20:11;;;;;;;22.80;19.20;;;;;;;;;;5029374;28;20498;-45
2021/08/23 11:22:37;;;;;;;20.83;18.30;;;;;;;;;;5030744;28;20402;-45
2021/08/23 11:25:04;;;;;;;22.73;19.87;;;;;;;;;;5030722;28;20856;-45
2021/08/23 11:27:30;;;;;;;23.23;18.80;;;;;;;;;;5030981;28;20410;-48
2021/08/23 11:29:57;;;;;;;25.20;18.63;;;;;;;;;;5030673;28;20413;-48
2021/08/23 11:32:27;;;;;;;20.97;18.70;;;;;;;;;;5030924;28;20492;-46
2021/08/23 11:34:53;;;;;;;22.90;19.27;;;;;;;;;;5030493;28;20433;-49
2021/08/23 11:37:23;;;;;;;23.60;17.20;;;;;;;;;;5030859;28;20435;-46
2021/08/23 11:39:50;;;;;;;20.60;17.80;;;;;;;;;;5030461;28;20404;-46
2021/08/23 11:42:17;;;;;;;21.13;18.70;;;;;;;;;;5030675;28;20407;-45
2021/08/23 11:44:48;;;;;;;20.53;17.93;;;;;;;;;;5030354;28;20483;-46
2021/08/23 11:47:14;;;;;;;19.60;17.50;;;;;;;;;;5030556;28;20414;-45
2021/08/23 11:49:42;;;;;;;17.33;15.53;;;;;;;;;;5030605;28;20441;-44
2021/08/23 11:52:15;;;;;;;17.73;15.93;;;;;;;;;;5030443;28;20414;-46
2021/08/23 11:54:45;;;;;;;17.63;15.60;;;;;;;;;;5030257;28;20445;-48
2021/08/23 11:57:11;;;;;;;17.30;15.60;;;;;;;;;;5030426;28;20395;-48
2021/08/23 11:59:37;;;;;;;19.73;15.73;;;;;;;;;;5029971;28;20405;-48
2021/08/23 12:02:10;;;;;;;17.73;15.63;;;;;;;;;;5030798;28;20405;-46
2021/08/23 12:04:37;;;;;;;15.83;14.17;;;;;;;;;;5030255;28;20421;-47
2021/08/23 12:07:03;;;;;;;21.30;15.20;;;;;;;;;;5030442;28;20407;-47
2021/08/23 12:09:29;;;;;;;16.77;15.10;;;;;;;;;;5030010;28;20407;-47
2021/08/23 12:11:57;;;;;;;16.93;15.27;;;;;;;;;;5030238;28;20764;-47
2021/08/23 12:14:28;;;;;;;19.07;16.57;;;;;;;;;;5029812;28;20519;-47
2021/08/23 12:16:56;;;;;;;16.57;14.80;;;;;;;;;;5030171;28;20932;-46
2021/08/23 12:19:22;;;;;;;17.23;15.43;;;;;;;;;;5031571;28;20415;-47
2021/08/23 12:22:01;;;;;;;18.50;14.77;;;;;;;;;;5033872;28;20493;-47
2021/08/23 12:24:27;;;;;;;17.57;15.13;;;;;;;;;;5034910;28;20436;-47
2021/08/23 12:27:00;;;;;;;18.00;16.07;;;;;;;;;;5035348;28;20468;-48
2021/08/23 12:29:33;;;;;;;15.40;13.87;;;;;;;;;;5037108;28;20420;-46
2021/08/23 12:32:04;;;;;;;16.83;14.43;;;;;;;;;;5038543;28;20406;-45
2021/08/23 12:34:34;;;;;;;17.03;14.13;;;;;;;;;;5036775;28;20434;-48
2021/08/23 12:37:02;;;;;;;15.27;13.37;;;;;;;;;;5034707;28;20425;-48
2021/08/23 12:39:28;;;;;;;16.20;14.50;;;;;;;;;;5036723;28;20422;-46
2021/08/23 12:41:58;;;;;;;14.00;12.60;;;;;;;;;;5035636;28;20437;-46
2021/08/23 12:44:24;;;;;;;15.87;12.23;;;;;;;;;;5038808;28;20429;-47
2021/08/23 12:46:50;;;;;;;13.17;11.77;;;;;;;;;;5033192;28;20849;-47
2021/08/23 12:49:18;;;;;;;12.53;11.33;;;;;;;;;;5033314;28;20406;-47
2021/08/23 12:51:45;;;;;;;12.70;11.40;;;;;;;;;;5033223;28;20413;-47
2021/08/23 12:54:13;;;;;;;12.77;11.60;;;;;;;;;;5031242;28;20432;-47
2021/08/23 12:56:39;;;;;;;13.40;12.20;;;;;;;;;;5033202;28;20402;-47
2021/08/23 12:59:07;;;;;;;12.53;11.33;;;;;;;;;;5032926;28;20409;-47
2021/08/23 13:01:34;;;;;;;16.20;12.53;;;;;;;;;;5032776;28;20500;-47
2021/08/23 13:04:00;;;;;;;14.53;12.93;;;;;;;;;;5032957;28;20511;-47
2021/08/23 13:06:27;;;;;;;13.70;11.90;;;;;;;;;;5032696;28;20547;-47
2021/08/23 13:08:53;;;;;;;13.27;11.87;;;;;;;;;;5032654;28;20412;-46
2021/08/23 13:11:19;;;;;;;14.30;12.83;;;;;;;;;;5033016;28;20893;-47
2021/08/23 13:13:45;;;;;;;13.20;11.80;;;;;;;;;;5032811;28;20405;-47
2021/08/23 13:16:11;;;;;;;13.03;11.73;;;;;;;;;;5032893;28;20834;-47
2021/08/23 13:18:38;;;;;;;14.30;12.80;;;;;;;;;;5032919;28;20430;-47
2021/08/23 13:21:04;;;;;;;13.63;12.30;;;;;;;;;;5031591;28;20424;-47
2021/08/23 13:23:30;;;;;;;14.00;11.73;;;;;;;;;;5032762;28;20414;-47
2021/08/23 13:25:57;;;;;;;13.70;12.30;;;;;;;;;;5032798;28;20466;-47
2021/08/23 13:28:23;;;;;;;14.87;12.23;;;;;;;;;;5032474;28;20398;-47
2021/08/23 13:30:49;;;;;;;13.97;12.53;;;;;;;;;;5032299;28;20791;-47
2021/08/23 13:33:15;;;;;;;14.63;12.87;;;;;;;;;;5032456;28;20489;-47
2021/08/23 13:35:42;;;;;;;12.90;11.57;;;;;;;;;;5032046;28;20892;-47
2021/08/23 13:38:12;;;;;;;19.83;12.40;;;;;;;;;;5032533;28;20402;-47
2021/08/23 13:40:39;;;;;;;13.73;12.17;;;;;;;;;;5032579;28;20949;-47
2021/08/23 13:43:06;;;;;;;12.90;11.73;;;;;;;;;;5032332;28;20410;-48
2021/08/23 13:45:35;;;;;;;12.57;11.43;;;;;;;;;;5032446;28;20742;-47
2021/08/23 13:48:02;;;;;;;11.47;10.50;;;;;;;;;;5030907;28;20410;-47
2021/08/23 13:50:29;;;;;;;12.87;11.77;;;;;;;;;;5031869;28;20445;-47
2021/08/23 13:52:55;;;;;;;13.03;11.80;;;;;;;;;;5032092;28;20410;-48
2021/08/23 13:55:21;;;;;;;14.80;12.70;;;;;;;;;;5031771;28;20705;-47
2021/08/23 13:57:47;;;;;;;11.77;10.80;;;;;;;;;;5031912;28;20497;-47
2021/08/23 14:00:14;;;;;;;14.40;11.93;;;;;;;;;;5031774;28;20426;-48
2021/08/23 14:02:40;;;;;;;11.70;10.43;;;;;;;;;;5032253;28;20415;-48
2021/08/23 14:05:07;;;;;;;11.33;10.23;;;;;;;;;;5031588;28;20465;-46
2021/08/23 14:07:34;;;;;;;10.50;9.60;;;;;;;;;;5031689;28;20410;-47
2021/08/23 14:10:01;;;;;;;13.30;11.90;;;;;;;;;;5031538;28;20766;-48
2021/08/23 14:12:29;;;;;;;12.90;11.70;;;;;;;;;;5031523;28;20411;-48
2021/08/23 14:14:55;;;;;;;11.80;10.60;;;;;;;;;;5031817;28;20486;-48
2021/08/23 14:17:21;;;;;;;10.40;9.53;;;;;;;;;;5031418;28;20405;-48